sensor_id;sensor_type;location;lat;lon;timestamp;pressure;altitude;pressure_sealevel;temperature;humidity
41686;BME280;27370;42.764;23.432;2023-10-09T00:00:08;95991.94;;;17.02;100.00
41686;BME280;27370;42.764;23.432;2023-10-09T00:02:52;96010.22;;;17.05;100.00
41686;BME280;27370;42.764;23.432;2023-10-09T00:05:19;95978.16;;;16.80;100.00
41686;BME280;27370;42.764;23.432;2023-10-09T00:07:48;96005.94;;;16.91;100.00
41686;BME280;27370;42.764;23.432;2023-10-09T00:10:14;95999.81;;;16.87;100.00
41686;BME280;27370;42.764;23.432;2023-10-09T00:12:43;96002.88;;;16.89;100.00
41686;BME280;27370;42.764;23.432;2023-10-09T00:15:09;95966.09;;;16.65;100.00
41686;BME280;27370;42.764;23.432;2023-10-09T00:17:37;96016.34;;;16.96;100.00
41686;BME280;27370;42.764;23.432;2023-10-09T00:20:03;96014.34;;;16.97;100.00
41686;BME280;27370;42.764;23.432;2023-10-09T00:22:42;96007.47;;;17.05;100.00
41686;BME280;27370;42.764;23.432;2023-10-09T00:25:08;96017.53;;;16.95;100.00
41686;BME280;27370;42.764;23.432;2023-10-09T00:27:41;95998.81;;;16.94;100.00
41686;BME280;27370;42.764;23.432;2023-10-09T00:30:11;95993.69;;;16.96;100.00
41686;BME280;27370;42.764;23.432;2023-10-09T00:32:41;96003.66;;;16.90;100.00
41686;BME280;27370;42.764;23.432;2023-10-09T00:35:08;96005.63;;;16.89;100.00
41686;BME280;27370;42.764;23.432;2023-10-09T00:37:52;95997.97;;;16.84;100.00
41686;BME280;27370;42.764;23.432;2023-10-09T00:40:21;95975.75;;;16.69;100.00
41686;BME280;27370;42.764;23.432;2023-10-09T00:42:53;96004.31;;;16.81;100.00
41686;BME280;27370;42.764;23.432;2023-10-09T00:45:21;95998.72;;;16.84;100.00
41686;BME280;27370;42.764;23.432;2023-10-09T00:47:52;95999.94;;;16.83;100.00
41686;BME280;27370;42.764;23.432;2023-10-09T00:50:21;96010.97;;;16.80;100.00
41686;BME280;27370;42.764;23.432;2023-10-09T00:52:53;96006.13;;;16.59;100.00
41686;BME280;27370;42.764;23.432;2023-10-09T00:55:35;96008.81;;;16.46;100.00
41686;BME280;27370;42.764;23.432;2023-10-09T00:58:08;96014.16;;;16.37;100.00
41686;BME280;27370;42.764;23.432;2023-10-09T01:00:41;96022.19;;;16.15;100.00
41686;BME280;27370;42.764;23.432;2023-10-09T01:03:15;96026.56;;;16.12;100.00
41686;BME280;27370;42.764;23.432;2023-10-09T01:06:01;96025.19;;;16.04;100.00
41686;BME280;27370;42.764;23.432;2023-10-09T01:08:39;96020.38;;;15.96;100.00
41686;BME280;27370;42.764;23.432;2023-10-09T01:13:37;96018.00;;;15.81;100.00
41686;BME280;27370;42.764;23.432;2023-10-09T01:16:12;96042.09;;;15.86;100.00
41686;BME280;27370;42.764;23.432;2023-10-09T01:18:42;96033.25;;;15.95;100.00
41686;BME280;27370;42.764;23.432;2023-10-09T01:21:09;96047.38;;;15.77;100.00
41686;BME280;27370;42.764;23.432;2023-10-09T01:23:40;96030.72;;;15.55;100.00
41686;BME280;27370;42.764;23.432;2023-10-09T01:26:26;96066.34;;;15.68;100.00
41686;BME280;27370;42.764;23.432;2023-10-09T01:28:51;96069.94;;;15.65;100.00
41686;BME280;27370;42.764;23.432;2023-10-09T01:31:24;96033.72;;;15.45;100.00
41686;BME280;27370;42.764;23.432;2023-10-09T01:33:52;96057.13;;;15.62;100.00
41686;BME280;27370;42.764;23.432;2023-10-09T01:36:19;96059.22;;;15.54;100.00
41686;BME280;27370;42.764;23.432;2023-10-09T01:38:59;96078.66;;;15.56;100.00
41686;BME280;27370;42.764;23.432;2023-10-09T01:41:25;96080.13;;;15.61;100.00
41686;BME280;27370;42.764;23.432;2023-10-09T01:43:50;96082.88;;;15.61;100.00
41686;BME280;27370;42.764;23.432;2023-10-09T01:46:18;96085.25;;;15.59;100.00
41686;BME280;27370;42.764;23.432;2023-10-09T01:48:45;96097.78;;;15.56;100.00
41686;BME280;27370;42.764;23.432;2023-10-09T01:51:15;96093.25;;;15.50;100.00
41686;BME280;27370;42.764;23.432;2023-10-09T01:53:44;96098.38;;;15.48;100.00
41686;BME280;27370;42.764;23.432;2023-10-09T01:56:13;96099.13;;;15.32;100.00
41686;BME280;27370;42.764;23.432;2023-10-09T01:58:42;96091.97;;;15.22;100.00
41686;BME280;27370;42.764;23.432;2023-10-09T02:01:09;96075.88;;;14.91;100.00
41686;BME280;27370;42.764;23.432;2023-10-09T02:03:35;96101.47;;;14.97;100.00
41686;BME280;27370;42.764;23.432;2023-10-09T02:06:07;96113.34;;;14.87;100.00
41686;BME280;27370;42.764;23.432;2023-10-09T02:08:53;96112.91;;;14.73;100.00
41686;BME280;27370;42.764;23.432;2023-10-09T02:11:19;96119.25;;;14.66;100.00
41686;BME280;27370;42.764;23.432;2023-10-09T02:13:52;96113.16;;;14.58;100.00
41686;BME280;27370;42.764;23.432;2023-10-09T02:16:26;96123.03;;;14.52;100.00
41686;BME280;27370;42.764;23.432;2023-10-09T02:18:55;96131.38;;;14.41;100.00
41686;BME280;27370;42.764;23.432;2023-10-09T02:21:24;96131.91;;;14.33;100.00
41686;BME280;27370;42.764;23.432;2023-10-09T02:24:02;96138.88;;;14.14;100.00
41686;BME280;27370;42.764;23.432;2023-10-09T02:26:32;96142.09;;;14.09;100.00
41686;BME280;27370;42.764;23.432;2023-10-09T02:29:03;96139.16;;;14.20;100.00
41686;BME280;27370;42.764;23.432;2023-10-09T02:31:49;96148.28;;;14.09;100.00
41686;BME280;27370;42.764;23.432;2023-10-09T02:34:19;96153.97;;;13.95;100.00
41686;BME280;27370;42.764;23.432;2023-10-09T02:36:50;96157.28;;;13.83;100.00
41686;BME280;27370;42.764;23.432;2023-10-09T02:39:24;96161.97;;;13.83;100.00
41686;BME280;27370;42.764;23.432;2023-10-09T02:41:53;96173.84;;;13.69;100.00
41686;BME280;27370;42.764;23.432;2023-10-09T02:44:23;96169.84;;;13.50;100.00
41686;BME280;27370;42.764;23.432;2023-10-09T02:46:52;96176.41;;;13.53;100.00
41686;BME280;27370;42.764;23.432;2023-10-09T02:49:23;96168.56;;;13.58;100.00
41686;BME280;27370;42.764;23.432;2023-10-09T02:51:49;96170.31;;;13.45;100.00
41686;BME280;27370;42.764;23.432;2023-10-09T02:54:18;96167.94;;;13.47;100.00
41686;BME280;27370;42.764;23.432;2023-10-09T02:56:52;96174.97;;;13.44;100.00
41686;BME280;27370;42.764;23.432;2023-10-09T02:59:22;96152.75;;;13.23;100.00
41686;BME280;27370;42.764;23.432;2023-10-09T03:01:49;96180.00;;;13.46;100.00
41686;BME280;27370;42.764;23.432;2023-10-09T03:04:18;96182.06;;;13.38;100.00
41686;BME280;27370;42.764;23.432;2023-10-09T03:06:45;96185.47;;;13.12;100.00
41686;BME280;27370;42.764;23.432;2023-10-09T03:09:20;96195.16;;;13.16;100.00
41686;BME280;27370;42.764;23.432;2023-10-09T03:11:57;96201.78;;;13.12;100.00
41686;BME280;27370;42.764;23.432;2023-10-09T03:14:34;96194.56;;;13.02;100.00
41686;BME280;27370;42.764;23.432;2023-10-09T03:17:05;96196.59;;;12.94;100.00
41686;BME280;27370;42.764;23.432;2023-10-09T03:19:32;96192.75;;;12.92;100.00
41686;BME280;27370;42.764;23.432;2023-10-09T03:22:07;96201.41;;;12.79;100.00
41686;BME280;27370;42.764;23.432;2023-10-09T03:24:40;96201.31;;;12.86;100.00
41686;BME280;27370;42.764;23.432;2023-10-09T03:27:10;96176.06;;;12.55;100.00
41686;BME280;27370;42.764;23.432;2023-10-09T03:29:36;96215.00;;;12.42;100.00
41686;BME280;27370;42.764;23.432;2023-10-09T03:32:03;96220.03;;;12.47;100.00
41686;BME280;27370;42.764;23.432;2023-10-09T03:34:28;96218.84;;;12.48;100.00
41686;BME280;27370;42.764;23.432;2023-10-09T03:36:56;96224.38;;;12.37;100.00
41686;BME280;27370;42.764;23.432;2023-10-09T03:39:31;96216.78;;;12.18;100.00
41686;BME280;27370;42.764;23.432;2023-10-09T03:42:07;96210.38;;;11.94;100.00
41686;BME280;27370;42.764;23.432;2023-10-09T03:44:38;96221.63;;;11.92;100.00
41686;BME280;27370;42.764;23.432;2023-10-09T03:47:07;96228.63;;;11.90;100.00
41686;BME280;27370;42.764;23.432;2023-10-09T03:49:36;96219.41;;;11.80;100.00
41686;BME280;27370;42.764;23.432;2023-10-09T03:52:04;96226.38;;;11.78;100.00
41686;BME280;27370;42.764;23.432;2023-10-09T03:54:32;96231.03;;;11.74;100.00
41686;BME280;27370;42.764;23.432;2023-10-09T03:57:00;96229.50;;;11.80;100.00
41686;BME280;27370;42.764;23.432;2023-10-09T03:59:26;96225.63;;;11.74;100.00
41686;BME280;27370;42.764;23.432;2023-10-09T04:01:55;96234.13;;;11.76;100.00
41686;BME280;27370;42.764;23.432;2023-10-09T04:04:23;96234.16;;;11.72;100.00
41686;BME280;27370;42.764;23.432;2023-10-09T04:06:50;96238.81;;;11.72;100.00
41686;BME280;27370;42.764;23.432;2023-10-09T04:09:19;96232.97;;;11.73;100.00
41686;BME280;27370;42.764;23.432;2023-10-09T04:11:52;96235.41;;;11.60;100.00
41686;BME280;27370;42.764;23.432;2023-10-09T04:14:36;96238.13;;;11.60;100.00
41686;BME280;27370;42.764;23.432;2023-10-09T04:17:09;96240.88;;;11.50;100.00
41686;BME280;27370;42.764;23.432;2023-10-09T04:19:54;96250.94;;;11.53;100.00
41686;BME280;27370;42.764;23.432;2023-10-09T04:22:40;96250.59;;;11.44;100.00
41686;BME280;27370;42.764;23.432;2023-10-09T04:25:19;96249.13;;;11.32;100.00
41686;BME280;27370;42.764;23.432;2023-10-09T04:27:58;96257.63;;;11.34;100.00
41686;BME280;27370;42.764;23.432;2023-10-09T04:30:42;96261.06;;;11.42;100.00
41686;BME280;27370;42.764;23.432;2023-10-09T04:33:09;96256.03;;;11.44;100.00
41686;BME280;27370;42.764;23.432;2023-10-09T04:36:04;96239.78;;;11.40;100.00
41686;BME280;27370;42.764;23.432;2023-10-09T04:38:53;96259.84;;;11.53;100.00
41686;BME280;27370;42.764;23.432;2023-10-09T04:41:41;96261.78;;;11.53;100.00
41686;BME280;27370;42.764;23.432;2023-10-09T04:44:07;96260.59;;;11.61;100.00
41686;BME280;27370;42.764;23.432;2023-10-09T04:46:45;96244.03;;;11.41;100.00
41686;BME280;27370;42.764;23.432;2023-10-09T04:49:33;96240.19;;;11.31;100.00
41686;BME280;27370;42.764;23.432;2023-10-09T04:52:15;96266.53;;;11.38;100.00
41686;BME280;27370;42.764;23.432;2023-10-09T04:55:04;96277.31;;;11.45;100.00
41686;BME280;27370;42.764;23.432;2023-10-09T04:57:53;96268.84;;;11.40;100.00
41686;BME280;27370;42.764;23.432;2023-10-09T05:00:34;96273.88;;;11.41;100.00
41686;BME280;27370;42.764;23.432;2023-10-09T05:03:01;96283.56;;;11.39;100.00
41686;BME280;27370;42.764;23.432;2023-10-09T05:05:57;96284.34;;;11.35;100.00
41686;BME280;27370;42.764;23.432;2023-10-09T05:08:31;96288.22;;;11.38;100.00
41686;BME280;27370;42.764;23.432;2023-10-09T05:10:58;96302.56;;;11.28;100.00
41686;BME280;27370;42.764;23.432;2023-10-09T05:13:31;96297.53;;;11.37;100.00
41686;BME280;27370;42.764;23.432;2023-10-09T05:16:16;96278.97;;;11.25;100.00
41686;BME280;27370;42.764;23.432;2023-10-09T05:18:51;96297.91;;;11.39;100.00
41686;BME280;27370;42.764;23.432;2023-10-09T05:21:40;96307.53;;;11.47;100.00
41686;BME280;27370;42.764;23.432;2023-10-09T05:24:12;96315.25;;;11.52;100.00
41686;BME280;27370;42.764;23.432;2023-10-09T05:26:38;96270.84;;;11.21;100.00
41686;BME280;27370;42.764;23.432;2023-10-09T05:29:20;96318.69;;;11.63;100.00
41686;BME280;27370;42.764;23.432;2023-10-09T05:31:57;96318.28;;;11.69;100.00
41686;BME280;27370;42.764;23.432;2023-10-09T05:34:38;96326.69;;;11.95;100.00
41686;BME280;27370;42.764;23.432;2023-10-09T05:37:23;96320.75;;;12.15;100.00
41686;BME280;27370;42.764;23.432;2023-10-09T05:39:55;96331.53;;;12.22;100.00
41686;BME280;27370;42.764;23.432;2023-10-09T05:47:45;96343.91;;;12.30;100.00
41686;BME280;27370;42.764;23.432;2023-10-09T05:50:30;96344.63;;;12.38;100.00
41686;BME280;27370;42.764;23.432;2023-10-09T05:53:14;96350.88;;;12.35;100.00
41686;BME280;27370;42.764;23.432;2023-10-09T05:56:03;96362.81;;;12.48;100.00
41686;BME280;27370;42.764;23.432;2023-10-09T05:58:47;96354.63;;;12.51;100.00
41686;BME280;27370;42.764;23.432;2023-10-09T06:01:31;96355.00;;;12.53;100.00
41686;BME280;27370;42.764;23.432;2023-10-09T06:04:15;96355.28;;;12.63;100.00
41686;BME280;27370;42.764;23.432;2023-10-09T06:06:42;96363.75;;;12.75;100.00
41686;BME280;27370;42.764;23.432;2023-10-09T06:09:14;96366.44;;;12.79;100.00
41686;BME280;27370;42.764;23.432;2023-10-09T06:14:07;96379.91;;;12.93;100.00
41686;BME280;27370;42.764;23.432;2023-10-09T06:16:36;96376.00;;;12.94;100.00
41686;BME280;27370;42.764;23.432;2023-10-09T06:21:56;96351.38;;;13.08;100.00
41686;BME280;27370;42.764;23.432;2023-10-09T06:24:41;96391.53;;;13.35;100.00
41686;BME280;27370;42.764;23.432;2023-10-09T06:27:18;96394.13;;;13.49;100.00
41686;BME280;27370;42.764;23.432;2023-10-09T06:29:57;96395.72;;;13.46;100.00
41686;BME280;27370;42.764;23.432;2023-10-09T06:32:50;96386.72;;;13.49;100.00
41686;BME280;27370;42.764;23.432;2023-10-09T06:35:45;96383.91;;;13.57;100.00
41686;BME280;27370;42.764;23.432;2023-10-09T06:38:19;96384.91;;;13.73;100.00
41686;BME280;27370;42.764;23.432;2023-10-09T06:40:51;96393.06;;;13.73;100.00
41686;BME280;27370;42.764;23.432;2023-10-09T06:43:20;96389.94;;;13.75;100.00
41686;BME280;27370;42.764;23.432;2023-10-09T06:45:49;96392.44;;;13.93;100.00
41686;BME280;27370;42.764;23.432;2023-10-09T06:48:21;96396.53;;;14.08;100.00
41686;BME280;27370;42.764;23.432;2023-10-09T06:51:17;96399.19;;;14.12;100.00
41686;BME280;27370;42.764;23.432;2023-10-09T06:53:55;96396.78;;;14.17;100.00
41686;BME280;27370;42.764;23.432;2023-10-09T06:58:56;96397.44;;;14.25;100.00
41686;BME280;27370;42.764;23.432;2023-10-09T07:01:29;96395.06;;;14.30;100.00
41686;BME280;27370;42.764;23.432;2023-10-09T07:04:06;96401.63;;;14.33;100.00
41686;BME280;27370;42.764;23.432;2023-10-09T07:06:45;96390.25;;;14.38;100.00
41686;BME280;27370;42.764;23.432;2023-10-09T07:09:12;96392.47;;;14.50;100.00
41686;BME280;27370;42.764;23.432;2023-10-09T07:11:39;96390.34;;;14.61;100.00
41686;BME280;27370;42.764;23.432;2023-10-09T07:14:21;96394.09;;;14.71;100.00
41686;BME280;27370;42.764;23.432;2023-10-09T07:17:04;96396.16;;;14.87;100.00
41686;BME280;27370;42.764;23.432;2023-10-09T07:19:42;96405.59;;;14.82;100.00
41686;BME280;27370;42.764;23.432;2023-10-09T07:22:09;96400.44;;;14.88;100.00
41686;BME280;27370;42.764;23.432;2023-10-09T07:27:26;96412.22;;;15.05;100.00
41686;BME280;27370;42.764;23.432;2023-10-09T07:30:08;96413.28;;;15.11;100.00
41686;BME280;27370;42.764;23.432;2023-10-09T07:33:06;96407.06;;;15.10;100.00
41686;BME280;27370;42.764;23.432;2023-10-09T07:35:37;96405.81;;;15.15;100.00
41686;BME280;27370;42.764;23.432;2023-10-09T07:38:19;96409.06;;;15.29;100.00
41686;BME280;27370;42.764;23.432;2023-10-09T07:40:48;96406.56;;;15.39;100.00
41686;BME280;27370;42.764;23.432;2023-10-09T07:43:33;96409.53;;;15.48;100.00
41686;BME280;27370;42.764;23.432;2023-10-09T07:46:09;96398.31;;;15.42;100.00
41686;BME280;27370;42.764;23.432;2023-10-09T07:48:54;96408.16;;;15.59;100.00
41686;BME280;27370;42.764;23.432;2023-10-09T07:51:21;96412.72;;;15.66;100.00
41686;BME280;27370;42.764;23.432;2023-10-09T07:53:57;96409.94;;;15.46;100.00
41686;BME280;27370;42.764;23.432;2023-10-09T07:56:26;96408.38;;;15.25;100.00
41686;BME280;27370;42.764;23.432;2023-10-09T07:58:57;96415.91;;;15.61;100.00
41686;BME280;27370;42.764;23.432;2023-10-09T08:01:26;96419.31;;;15.45;100.00
41686;BME280;27370;42.764;23.432;2023-10-09T08:04:02;96414.53;;;15.29;100.00
41686;BME280;27370;42.764;23.432;2023-10-09T08:06:30;96420.38;;;15.51;100.00
41686;BME280;27370;42.764;23.432;2023-10-09T08:09:05;96411.66;;;15.37;100.00
41686;BME280;27370;42.764;23.432;2023-10-09T08:11:41;96404.38;;;15.73;100.00
41686;BME280;27370;42.764;23.432;2023-10-09T08:14:13;96399.84;;;15.86;100.00
41686;BME280;27370;42.764;23.432;2023-10-09T08:17:05;96400.56;;;16.07;100.00
41686;BME280;27370;42.764;23.432;2023-10-09T08:19:51;96400.19;;;16.24;100.00
41686;BME280;27370;42.764;23.432;2023-10-09T08:22:30;96392.19;;;15.98;100.00
41686;BME280;27370;42.764;23.432;2023-10-09T08:24:56;96401.56;;;16.16;100.00
41686;BME280;27370;42.764;23.432;2023-10-09T08:27:26;96397.38;;;15.92;100.00
41686;BME280;27370;42.764;23.432;2023-10-09T08:30:06;96391.81;;;16.15;100.00
41686;BME280;27370;42.764;23.432;2023-10-09T08:32:48;96385.28;;;16.45;100.00
41686;BME280;27370;42.764;23.432;2023-10-09T08:35:29;96376.56;;;16.50;100.00
41686;BME280;27370;42.764;23.432;2023-10-09T08:38:00;96372.16;;;16.57;100.00
41686;BME280;27370;42.764;23.432;2023-10-09T08:40:42;96369.09;;;16.87;100.00
41686;BME280;27370;42.764;23.432;2023-10-09T08:43:16;96363.94;;;17.05;100.00
41686;BME280;27370;42.764;23.432;2023-10-09T08:48:11;96353.94;;;16.50;100.00
41686;BME280;27370;42.764;23.432;2023-10-09T08:50:44;96354.16;;;16.23;100.00
41686;BME280;27370;42.764;23.432;2023-10-09T08:53:11;96354.19;;;16.39;100.00
41686;BME280;27370;42.764;23.432;2023-10-09T08:55:38;96346.53;;;16.83;100.00
41686;BME280;27370;42.764;23.432;2023-10-09T08:58:05;96351.09;;;17.19;100.00
41686;BME280;27370;42.764;23.432;2023-10-09T09:00:47;96324.22;;;17.30;100.00
41686;BME280;27370;42.764;23.432;2023-10-09T09:03:16;96339.72;;;17.49;100.00
41686;BME280;27370;42.764;23.432;2023-10-09T09:05:45;96353.53;;;17.58;100.00
41686;BME280;27370;42.764;23.432;2023-10-09T09:08:25;96345.56;;;17.93;100.00
41686;BME280;27370;42.764;23.432;2023-10-09T09:11:09;96351.59;;;18.13;98.47
41686;BME280;27370;42.764;23.432;2023-10-09T09:13:46;96352.94;;;18.34;96.75
41686;BME280;27370;42.764;23.432;2023-10-09T09:16:15;96342.38;;;18.32;93.52
41686;BME280;27370;42.764;23.432;2023-10-09T09:21:22;96350.72;;;18.42;96.03
41686;BME280;27370;42.764;23.432;2023-10-09T09:23:58;96351.50;;;18.67;94.77
41686;BME280;27370;42.764;23.432;2023-10-09T09:26:38;96343.34;;;18.77;94.46
41686;BME280;27370;42.764;23.432;2023-10-09T09:29:13;96343.59;;;18.57;97.02
41686;BME280;27370;42.764;23.432;2023-10-09T09:31:52;96312.88;;;18.62;100.00
41686;BME280;27370;42.764;23.432;2023-10-09T09:34:18;96338.69;;;18.99;95.54
41686;BME280;27370;42.764;23.432;2023-10-09T09:36:53;96334.72;;;18.40;93.16
41686;BME280;27370;42.764;23.432;2023-10-09T09:39:26;96336.78;;;18.49;94.73
41686;BME280;27370;42.764;23.432;2023-10-09T09:42:00;96317.72;;;18.45;93.74
41686;BME280;27370;42.764;23.432;2023-10-09T09:44:39;96310.91;;;18.50;91.66
41686;BME280;27370;42.764;23.432;2023-10-09T09:47:14;96337.22;;;18.60;87.74
41686;BME280;27370;42.764;23.432;2023-10-09T09:49:50;96331.88;;;18.44;87.16
41686;BME280;27370;42.764;23.432;2023-10-09T09:52:18;96330.78;;;18.16;87.50
41686;BME280;27370;42.764;23.432;2023-10-09T09:54:44;96320.03;;;18.34;89.15
41686;BME280;27370;42.764;23.432;2023-10-09T09:57:12;96318.34;;;18.75;93.28
41686;BME280;27370;42.764;23.432;2023-10-09T09:59:40;96294.19;;;18.82;91.09
41686;BME280;27370;42.764;23.432;2023-10-09T10:02:07;96298.50;;;19.05;86.48
41686;BME280;27370;42.764;23.432;2023-10-09T10:04:38;96286.34;;;18.93;85.68
41686;BME280;27370;42.764;23.432;2023-10-09T10:07:06;96290.88;;;18.87;84.46
41686;BME280;27370;42.764;23.432;2023-10-09T10:09:35;96302.78;;;19.06;85.50
41686;BME280;27370;42.764;23.432;2023-10-09T10:12:08;96287.03;;;19.19;87.37
41686;BME280;27370;42.764;23.432;2023-10-09T10:14:56;96292.47;;;19.32;84.85
41686;BME280;27370;42.764;23.432;2023-10-09T10:17:30;96277.88;;;19.22;81.91
41686;BME280;27370;42.764;23.432;2023-10-09T10:22:26;96256.31;;;19.12;84.67
41686;BME280;27370;42.764;23.432;2023-10-09T10:24:53;96265.06;;;19.41;81.41
41686;BME280;27370;42.764;23.432;2023-10-09T10:27:20;96258.63;;;19.35;82.16
41686;BME280;27370;42.764;23.432;2023-10-09T10:35:20;96237.47;;;19.23;73.85
41686;BME280;27370;42.764;23.432;2023-10-09T10:37:58;96232.44;;;19.21;79.45
41686;BME280;27370;42.764;23.432;2023-10-09T10:40:33;96227.75;;;19.53;77.38
41686;BME280;27370;42.764;23.432;2023-10-09T10:43:15;96229.88;;;19.80;74.09
41686;BME280;27370;42.764;23.432;2023-10-09T10:46:06;96212.78;;;20.16;73.64
41686;BME280;27370;42.764;23.432;2023-10-09T10:48:52;96211.09;;;20.28;70.76
41686;BME280;27370;42.764;23.432;2023-10-09T10:51:25;96198.22;;;20.06;70.29
41686;BME280;27370;42.764;23.432;2023-10-09T10:54:01;96201.97;;;19.91;66.44
41686;BME280;27370;42.764;23.432;2023-10-09T10:56:49;96200.34;;;20.02;67.85
41686;BME280;27370;42.764;23.432;2023-10-09T10:59:15;96197.16;;;20.13;66.95
41686;BME280;27370;42.764;23.432;2023-10-09T11:01:48;96196.09;;;20.10;64.92
41686;BME280;27370;42.764;23.432;2023-10-09T11:04:24;96209.06;;;20.01;67.41
41686;BME280;27370;42.764;23.432;2023-10-09T11:06:53;96199.16;;;20.12;64.96
41686;BME280;27370;42.764;23.432;2023-10-09T11:09:49;96187.38;;;20.03;68.34
41686;BME280;27370;42.764;23.432;2023-10-09T11:12:45;96182.19;;;20.14;63.56
41686;BME280;27370;42.764;23.432;2023-10-09T11:15:32;96159.09;;;19.93;65.76
41686;BME280;27370;42.764;23.432;2023-10-09T11:18:11;96166.59;;;20.02;67.02
41686;BME280;27370;42.764;23.432;2023-10-09T11:20:53;96131.63;;;19.93;62.45
41686;BME280;27370;42.764;23.432;2023-10-09T11:23:45;96119.75;;;20.14;62.97
41686;BME280;27370;42.764;23.432;2023-10-09T11:26:25;96131.41;;;20.64;62.03
41686;BME280;27370;42.764;23.432;2023-10-09T11:29:13;96164.72;;;20.85;55.64
41686;BME280;27370;42.764;23.432;2023-10-09T11:32:00;96159.81;;;20.70;55.44
41686;BME280;27370;42.764;23.432;2023-10-09T11:34:27;96151.25;;;20.68;50.31
41686;BME280;27370;42.764;23.432;2023-10-09T11:37:01;96151.09;;;20.72;52.34
41686;BME280;27370;42.764;23.432;2023-10-09T11:39:29;96134.28;;;20.52;53.02
41686;BME280;27370;42.764;23.432;2023-10-09T11:42:07;96140.41;;;20.65;54.94
41686;BME280;27370;42.764;23.432;2023-10-09T11:44:40;96135.03;;;20.79;58.13
41686;BME280;27370;42.764;23.432;2023-10-09T11:47:09;96133.50;;;21.06;59.21
41686;BME280;27370;42.764;23.432;2023-10-09T11:49:51;96127.66;;;21.13;56.98
41686;BME280;27370;42.764;23.432;2023-10-09T11:52:27;96117.72;;;21.06;54.62
41686;BME280;27370;42.764;23.432;2023-10-09T11:55:06;96110.84;;;21.02;55.25
41686;BME280;27370;42.764;23.432;2023-10-09T11:57:33;96113.63;;;20.93;53.76
41686;BME280;27370;42.764;23.432;2023-10-09T12:00:04;96106.31;;;20.71;54.24
41686;BME280;27370;42.764;23.432;2023-10-09T12:02:36;96102.34;;;20.54;53.89
41686;BME280;27370;42.764;23.432;2023-10-09T12:05:10;96096.81;;;20.72;54.97
41686;BME280;27370;42.764;23.432;2023-10-09T12:07:44;96084.41;;;20.95;55.91
41686;BME280;27370;42.764;23.432;2023-10-09T12:10:09;96093.38;;;21.14;56.96
41686;BME280;27370;42.764;23.432;2023-10-09T12:12:35;96081.97;;;21.39;56.72
41686;BME280;27370;42.764;23.432;2023-10-09T12:15:01;96076.22;;;21.61;57.20
41686;BME280;27370;42.764;23.432;2023-10-09T12:17:30;96060.34;;;21.47;54.30
41686;BME280;27370;42.764;23.432;2023-10-09T12:19:55;96074.78;;;21.42;56.15
41686;BME280;27370;42.764;23.432;2023-10-09T12:22:21;96075.53;;;21.43;53.62
41686;BME280;27370;42.764;23.432;2023-10-09T12:24:47;96065.44;;;21.39;54.59
41686;BME280;27370;42.764;23.432;2023-10-09T12:27:13;96066.91;;;21.50;50.99
41686;BME280;27370;42.764;23.432;2023-10-09T12:29:38;96060.28;;;21.32;49.56
41686;BME280;27370;42.764;23.432;2023-10-09T12:32:10;96052.50;;;21.31;53.49
41686;BME280;27370;42.764;23.432;2023-10-09T12:34:36;96058.09;;;21.69;53.57
41686;BME280;27370;42.764;23.432;2023-10-09T12:37:05;96048.72;;;21.76;51.86
41686;BME280;27370;42.764;23.432;2023-10-09T12:39:31;96049.06;;;21.69;51.66
41686;BME280;27370;42.764;23.432;2023-10-09T12:42:00;96044.19;;;21.64;52.32
41686;BME280;27370;42.764;23.432;2023-10-09T12:44:35;96048.47;;;21.89;51.72
41686;BME280;27370;42.764;23.432;2023-10-09T12:47:08;96031.88;;;21.98;53.23
41686;BME280;27370;42.764;23.432;2023-10-09T12:49:36;96019.75;;;21.81;51.49
41686;BME280;27370;42.764;23.432;2023-10-09T12:52:07;96035.66;;;22.10;49.86
41686;BME280;27370;42.764;23.432;2023-10-09T12:54:42;96027.31;;;22.19;52.37
41686;BME280;27370;42.764;23.432;2023-10-09T12:57:07;96009.13;;;21.88;52.07
41686;BME280;27370;42.764;23.432;2023-10-09T12:59:42;96003.69;;;21.79;52.31
41686;BME280;27370;42.764;23.432;2023-10-09T13:02:19;96014.53;;;21.59;49.99
41686;BME280;27370;42.764;23.432;2023-10-09T13:04:57;95999.03;;;21.61;53.38
41686;BME280;27370;42.764;23.432;2023-10-09T13:07:25;96008.94;;;21.68;52.52
41686;BME280;27370;42.764;23.432;2023-10-09T13:09:50;96003.91;;;21.66;52.37
41686;BME280;27370;42.764;23.432;2023-10-09T13:12:35;95994.41;;;21.67;53.38
41686;BME280;27370;42.764;23.432;2023-10-09T13:15:10;95985.56;;;21.63;54.73
41686;BME280;27370;42.764;23.432;2023-10-09T13:17:36;95983.97;;;21.71;53.22
41686;BME280;27370;42.764;23.432;2023-10-09T13:20:03;95992.88;;;21.43;50.44
41686;BME280;27370;42.764;23.432;2023-10-09T13:22:39;95976.81;;;21.08;50.13
41686;BME280;27370;42.764;23.432;2023-10-09T13:25:09;95976.84;;;20.99;52.12
41686;BME280;27370;42.764;23.432;2023-10-09T13:27:41;95977.25;;;20.83;51.35
41686;BME280;27370;42.764;23.432;2023-10-09T13:30:07;95977.84;;;20.87;50.73
41686;BME280;27370;42.764;23.432;2023-10-09T13:32:34;95975.84;;;20.87;49.48
41686;BME280;27370;42.764;23.432;2023-10-09T13:35:04;95976.78;;;20.84;48.56
41686;BME280;27370;42.764;23.432;2023-10-09T13:37:31;95976.97;;;20.71;47.19
41686;BME280;27370;42.764;23.432;2023-10-09T13:40:05;95963.72;;;20.61;48.88
41686;BME280;27370;42.764;23.432;2023-10-09T13:42:36;95967.53;;;20.63;51.68
41686;BME280;27370;42.764;23.432;2023-10-09T13:45:03;95974.25;;;20.62;49.08
41686;BME280;27370;42.764;23.432;2023-10-09T13:47:41;95962.03;;;20.54;51.67